Time;durP1;ratioP1;P1;durP2;ratioP2;P2;SDS_P1;SDS_P2;PMS_P1;PMS_P2;Temp;Humidity;BMP_temperature;BMP_pressure;BME280_temperature;BME280_humidity;BME280_pressure;Samples;Min_cycle;Max_cycle;Signal;HPM_P1;HPM_P2
2022/08/19 00:01:36;;;;;;;15.57;3.47;;;23.80;82.70;;;;;;6127057;23;20321;-68
2022/08/19 00:04:05;;;;;;;13.02;3.50;;;23.80;82.90;;;;;;6127105;23;20337;-67
2022/08/19 00:06:30;;;;;;;14.82;3.55;;;23.80;82.90;;;;;;6126559;23;20073;-67
2022/08/19 00:08:59;;;;;;;13.82;3.45;;;23.80;82.70;;;;;;6126922;23;20041;-74
2022/08/19 00:11:26;;;;;;;14.10;3.22;;;23.80;82.80;;;;;;6127127;23;20020;-76
2022/08/19 00:13:52;;;;;;;16.77;4.32;;;23.80;82.90;;;;;;6126500;23;20006;-68
2022/08/19 00:16:19;;;;;;;16.27;3.45;;;23.80;83.00;;;;;;6126903;23;20002;-77
2022/08/19 00:18:45;;;;;;;14.07;2.97;;;23.80;82.80;;;;;;6126983;23;20006;-71
2022/08/19 00:21:10;;;;;;;11.98;3.30;;;23.80;83.00;;;;;;6126855;23;20014;-68
2022/08/19 00:23:36;;;;;;;15.68;3.67;;;23.70;83.00;;;;;;6126559;23;20008;-68
2022/08/19 00:26:05;;;;;;;14.57;3.58;;;23.70;83.30;;;;;;6126377;23;20092;-77
2022/08/19 00:28:32;;;;;;;14.60;3.90;;;23.70;83.40;;;;;;6126636;23;20016;-78
2022/08/19 00:30:59;;;;;;;17.05;4.22;;;23.60;83.60;;;;;;6126619;23;20002;-78
2022/08/19 00:33:25;;;;;;;18.00;3.28;;;23.60;83.60;;;;;;6126739;23;20052;-78
2022/08/19 00:35:51;;;;;;;15.85;3.22;;;23.60;83.60;;;;;;6127046;23;20018;-67
2022/08/19 00:38:17;;;;;;;10.65;2.90;;;23.60;83.50;;;;;;6126687;23;20010;-67
2022/08/19 00:40:46;;;;;;;15.48;3.92;;;23.60;83.20;;;;;;6126615;23;20002;-77
2022/08/19 00:43:15;;;;;;;13.75;3.20;;;23.60;82.70;;;;;;6126409;23;19998;-67
2022/08/19 00:45:43;;;;;;;13.20;3.28;;;23.70;82.00;;;;;;6126712;23;20336;-68
2022/08/19 00:48:09;;;;;;;14.80;4.35;;;23.70;82.10;;;;;;6126619;23;20357;-67
2022/08/19 00:50:35;;;;;;;9.48;2.95;;;23.70;82.50;;;;;;6126302;23;20141;-67
2022/08/19 00:53:04;;;;;;;10.88;3.00;;;23.70;82.90;;;;;;6126473;23;20089;-67
2022/08/19 00:55:31;;;;;;;18.85;3.58;;;23.60;83.00;;;;;;6125870;23;20021;-68
2022/08/19 00:58:01;;;;;;;14.02;3.70;;;23.70;83.30;;;;;;6124692;23;20006;-68
2022/08/19 01:00:28;;;;;;;9.73;3.03;;;23.60;83.40;;;;;;6122973;23;20088;-67
2022/08/19 01:02:54;;;;;;;16.30;3.95;;;23.60;83.50;;;;;;6123173;23;20010;-68
2022/08/19 01:05:27;;;;;;;15.15;3.50;;;23.50;83.60;;;;;;6124909;23;20081;-77
2022/08/19 01:07:54;;;;;;;15.18;2.67;;;23.50;83.90;;;;;;6125980;23;20006;-78
2022/08/19 01:10:25;;;;;;;14.32;2.85;;;23.50;84.00;;;;;;6126011;23;20002;-67
2022/08/19 01:12:51;;;;;;;13.43;3.22;;;23.50;84.30;;;;;;6125849;23;20008;-70
2022/08/19 01:15:22;;;;;;;10.05;2.90;;;23.50;84.40;;;;;;6126134;23;20399;-68
2022/08/19 01:17:49;;;;;;;12.25;3.40;;;23.50;84.70;;;;;;6126004;23;20005;-68
2022/08/19 01:20:19;;;;;;;10.63;3.03;;;23.50;84.70;;;;;;6125689;23;20427;-67
2022/08/19 01:22:48;;;;;;;15.82;3.08;;;23.50;84.80;;;;;;6126075;23;20089;-77
2022/08/19 01:25:17;;;;;;;23.85;3.40;;;23.50;84.80;;;;;;6125618;23;20024;-68
2022/08/19 01:27:47;;;;;;;16.95;3.30;;;23.50;84.60;;;;;;6125759;23;20053;-67
2022/08/19 01:30:18;;;;;;;14.15;3.28;;;23.50;84.60;;;;;;6125922;23;20002;-67
2022/08/19 01:32:43;;;;;;;13.63;3.47;;;23.50;84.70;;;;;;6126014;23;20006;-67
2022/08/19 01:35:11;;;;;;;12.27;3.28;;;23.50;84.60;;;;;;6125522;23;20385;-66
2022/08/19 01:38:08;;;;;;;13.60;3.65;;;23.50;84.50;;;;;;6127397;23;20089;-67
2022/08/19 01:40:36;;;;;;;14.23;3.13;;;23.50;84.30;;;;;;6126342;23;20017;-67
2022/08/19 01:43:02;;;;;;;16.25;3.33;;;23.50;83.90;;;;;;6128153;23;20093;-67
2022/08/19 01:45:32;;;;;;;10.10;2.75;;;23.50;84.00;;;;;;6128247;23;20005;-76
2022/08/19 01:47:58;;;;;;;10.80;2.80;;;23.50;84.20;;;;;;6128415;23;20041;-77
2022/08/19 01:50:24;;;;;;;11.60;3.15;;;23.50;84.20;;;;;;6128434;23;20057;-78
2022/08/19 01:52:50;;;;;;;18.40;3.10;;;23.50;84.10;;;;;;6127704;23;20370;-77
2022/08/19 01:55:19;;;;;;;12.98;3.42;;;23.60;83.90;;;;;;6127739;23;20045;-66
2022/08/19 01:57:49;;;;;;;17.35;3.05;;;23.60;83.70;;;;;;6128143;23;20374;-67
2022/08/19 02:00:18;;;;;;;13.75;3.00;;;23.50;83.50;;;;;;6128012;23;20010;-66
2022/08/19 02:02:44;;;;;;;13.52;3.17;;;23.50;83.80;;;;;;6128033;23;20002;-66
2022/08/19 02:05:11;;;;;;;17.27;3.40;;;23.50;84.10;;;;;;6127844;23;20072;-67
2022/08/19 02:07:38;;;;;;;20.20;3.35;;;23.40;84.60;;;;;;6127825;23;20038;-68
2022/08/19 02:10:07;;;;;;;10.55;3.53;;;23.40;85.00;;;;;;6127909;23;20045;-67
2022/08/19 02:12:33;;;;;;;11.23;2.78;;;23.40;85.40;;;;;;6127896;23;20053;-71
2022/08/19 02:15:00;;;;;;;18.10;3.10;;;23.40;85.50;;;;;;6128019;23;20098;-67
2022/08/19 02:17:28;;;;;;;14.20;2.58;;;23.30;85.60;;;;;;6127737;23;20332;-68
2022/08/19 02:19:54;;;;;;;14.15;2.83;;;23.30;85.90;;;;;;6128021;23;20030;-72
2022/08/19 02:22:20;;;;;;;12.45;3.28;;;23.30;86.00;;;;;;6127465;23;20429;-75
2022/08/19 02:24:47;;;;;;;15.98;4.70;;;23.30;86.10;;;;;;6127870;23;20045;-68
2022/08/19 02:27:14;;;;;;;12.63;2.83;;;23.30;86.00;;;;;;6127674;23;20080;-67
2022/08/19 02:29:40;;;;;;;17.63;3.17;;;23.30;86.10;;;;;;6127773;23;20445;-67
2022/08/19 02:32:06;;;;;;;13.70;3.17;;;23.20;86.10;;;;;;6127704;23;20060;-67
2022/08/19 02:34:32;;;;;;;18.80;3.63;;;23.20;86.10;;;;;;6127816;23;20029;-68
2022/08/19 02:36:58;;;;;;;15.07;3.55;;;23.20;86.20;;;;;;6127532;23;20002;-67
2022/08/19 02:39:24;;;;;;;13.88;3.20;;;23.20;86.30;;;;;;6127772;23;20061;-70
2022/08/19 02:41:50;;;;;;;18.95;3.63;;;23.20;86.70;;;;;;6127568;23;20005;-68
2022/08/19 02:44:16;;;;;;;11.60;3.08;;;23.20;86.80;;;;;;6128146;23;20014;-78
2022/08/19 02:46:43;;;;;;;16.00;3.22;;;23.10;87.00;;;;;;6127394;23;19998;-66
2022/08/19 02:49:08;;;;;;;13.60;3.17;;;23.00;86.90;;;;;;6127651;23;20014;-67
2022/08/19 02:51:40;;;;;;;16.98;3.22;;;23.00;87.00;;;;;;6127741;23;20006;-72
2022/08/19 02:54:08;;;;;;;10.85;3.05;;;23.00;87.10;;;;;;6126804;23;20068;-67
2022/08/19 02:56:38;;;;;;;13.02;2.63;;;22.90;86.90;;;;;;6127459;23;19998;-67
2022/08/19 02:59:09;;;;;;;14.23;3.25;;;22.90;86.80;;;;;;6127593;23;20006;-75
2022/08/19 03:01:35;;;;;;;15.43;2.90;;;22.90;87.00;;;;;;6127163;23;20021;-67
2022/08/19 03:04:04;;;;;;;11.05;3.10;;;22.90;87.20;;;;;;6127485;23;20288;-67
2022/08/19 03:06:30;;;;;;;19.48;3.08;;;22.90;87.20;;;;;;6127953;23;20424;-72
2022/08/19 03:08:57;;;;;;;9.77;2.63;;;23.00;87.20;;;;;;6127205;23;20021;-67
2022/08/19 03:11:29;;;;;;;10.23;2.88;;;23.00;87.30;;;;;;6127421;23;20002;-67
2022/08/19 03:13:55;;;;;;;13.70;3.10;;;23.00;87.40;;;;;;6127165;23;20002;-68
2022/08/19 03:16:24;;;;;;;14.02;2.90;;;22.90;87.30;;;;;;6127638;23;20020;-75
2022/08/19 03:18:50;;;;;;;12.38;2.97;;;23.00;87.40;;;;;;6126953;23;20002;-66
2022/08/19 03:21:18;;;;;;;11.13;3.47;;;23.00;87.40;;;;;;6127472;23;20037;-77
2022/08/19 03:23:44;;;;;;;14.27;2.92;;;23.00;87.50;;;;;;6127048;23;20030;-67
2022/08/19 03:26:10;;;;;;;13.65;3.08;;;23.00;87.40;;;;;;6126973;23;20018;-78
2022/08/19 03:28:36;;;;;;;13.70;2.92;;;23.00;87.20;;;;;;6127505;23;20084;-69
2022/08/19 03:31:04;;;;;;;13.18;3.25;;;23.00;87.20;;;;;;6127320;23;20303;-67
2022/08/19 03:33:31;;;;;;;14.05;3.13;;;22.90;87.00;;;;;;6126927;23;20029;-78
2022/08/19 03:36:12;;;;;;;9.93;2.97;;;22.90;87.20;;;;;;6127125;23;20349;-76
2022/08/19 03:38:46;;;;;;;8.87;2.90;;;22.90;87.30;;;;;;6127135;23;20002;-66
2022/08/19 03:41:24;;;;;;;17.08;3.75;;;22.90;87.30;;;;;;6126838;23;20238;-70
2022/08/19 03:43:51;;;;;;;13.18;3.33;;;22.90;87.60;;;;;;6126683;23;20006;-67
2022/08/19 03:46:22;;;;;;;15.95;3.90;;;22.80;87.80;;;;;;6126850;23;20010;-67
2022/08/19 03:48:53;;;;;;;11.98;3.35;;;22.70;88.10;;;;;;6126925;23;20437;-67
2022/08/19 03:51:24;;;;;;;15.60;3.13;;;22.70;88.20;;;;;;6127105;23;20009;-67
2022/08/19 03:53:54;;;;;;;14.43;3.65;;;22.70;88.40;;;;;;6126697;23;20013;-66
2022/08/19 03:56:20;;;;;;;17.85;3.30;;;22.70;88.40;;;;;;6126777;23;20013;-67
2022/08/19 03:58:46;;;;;;;13.10;2.92;;;22.60;88.30;;;;;;6126584;23;20365;-69
2022/08/19 04:01:15;;;;;;;19.27;2.92;;;22.60;88.40;;;;;;6127230;23;20109;-67
2022/08/19 04:03:41;;;;;;;14.23;2.80;;;22.60;88.20;;;;;;6126827;23;20057;-69
2022/08/19 04:06:21;;;;;;;11.30;2.45;;;22.60;88.10;;;;;;6126981;23;20006;-67
2022/08/19 04:08:50;;;;;;;8.90;2.42;;;22.60;88.10;;;;;;6127217;23;20036;-78
2022/08/19 04:11:21;;;;;;;15.85;3.03;;;22.60;87.90;;;;;;6126792;23;20041;-69
2022/08/19 04:13:48;;;;;;;9.63;2.83;;;22.50;87.90;;;;;;6126662;23;20425;-78
2022/08/19 04:16:14;;;;;;;20.67;3.28;;;22.50;87.90;;;;;;6127383;23;20436;-78
2022/08/19 04:18:40;;;;;;;17.08;3.05;;;22.50;88.10;;;;;;6126754;23;20006;-67
2022/08/19 04:21:07;;;;;;;16.30;2.75;;;22.40;88.20;;;;;;6126650;23;20362;-67
2022/08/19 04:23:37;;;;;;;12.10;2.50;;;22.40;89.00;;;;;;6127054;23;20341;-74
2022/08/19 04:26:03;;;;;;;7.82;2.25;;;22.40;88.30;;;;;;6126254;23;20046;-78
2022/08/19 04:28:28;;;;;;;11.65;2.15;;;22.40;88.10;;;;;;6126884;23;20325;-76
2022/08/19 04:30:55;;;;;;;11.27;2.40;;;22.40;87.70;;;;;;6126872;23;20009;-77
2022/08/19 04:33:25;;;;;;;10.80;2.33;;;22.40;87.50;;;;;;6126461;23;20429;-77
2022/08/19 04:35:52;;;;;;;12.18;3.17;;;22.40;86.90;;;;;;6126369;23;20096;-77
2022/08/19 04:38:22;;;;;;;14.75;2.65;;;22.30;86.80;;;;;;6126633;23;20005;-66
2022/08/19 04:43:37;;;;;;;11.75;2.75;;;22.40;87.00;;;;;;6126582;23;20017;-67
2022/08/19 04:46:12;;;;;;;13.40;2.88;;;22.40;87.40;;;;;;6126559;23;20089;-67
2022/08/19 04:48:39;;;;;;;12.38;2.75;;;22.40;87.70;;;;;;6126132;23;20006;-77
2022/08/19 04:51:10;;;;;;;14.93;2.70;;;22.40;87.90;;;;;;6126523;23;20072;-78
2022/08/19 04:53:37;;;;;;;15.70;2.63;;;22.40;88.10;;;;;;6126688;23;20044;-66
2022/08/19 04:56:09;;;;;;;12.85;2.80;;;22.40;88.20;;;;;;6126742;23;20068;-67
2022/08/19 04:58:36;;;;;;;14.60;2.90;;;22.30;88.50;;;;;;6126058;23;20327;-75
2022/08/19 05:01:03;;;;;;;14.80;2.90;;;22.30;88.50;;;;;;6126302;23;20009;-66
2022/08/19 05:03:32;;;;;;;11.05;2.40;;;22.30;88.00;;;;;;6126839;23;20060;-75
2022/08/19 05:05:58;;;;;;;7.55;1.70;;;22.30;86.60;;;;;;6126542;23;20092;-76
2022/08/19 05:08:24;;;;;;;10.65;1.73;;;22.30;85.50;;;;;;6126215;23;20053;-77
2022/08/19 05:10:51;;;;;;;8.70;1.70;;;22.20;85.40;;;;;;6126197;23;20341;-78
2022/08/19 05:13:19;;;;;;;11.15;2.28;;;22.20;85.30;;;;;;6126052;23;20440;-74
2022/08/19 05:15:54;;;;;;;6.50;1.35;;;22.20;84.90;;;;;;6126077;23;20097;-78
2022/08/19 05:24:04;;;;;;;3.55;1.05;;;22.00;83.10;;;;;;6085751;23;20072;-74
2022/08/19 05:26:29;;;;;;;3.45;0.82;;;22.00;83.10;;;;;;6126071;23;20029;-68
2022/08/19 05:28:55;;;;;;;4.75;1.00;;;22.00;82.90;;;;;;6126394;23;20333;-72
2022/08/19 05:31:21;;;;;;;2.53;0.70;;;22.00;82.80;;;;;;6126368;23;20334;-77
2022/08/19 05:33:47;;;;;;;2.50;0.82;;;22.00;82.30;;;;;;6125623;23;20377;-67
2022/08/19 05:36:13;;;;;;;5.63;0.90;;;22.00;82.10;;;;;;6126132;23;20030;-67
2022/08/19 05:38:40;;;;;;;1.73;0.60;;;22.00;81.90;;;;;;6126798;23;20010;-67
2022/08/19 05:41:14;;;;;;;2.55;0.52;;;22.00;80.20;;;;;;6126252;23;20013;-67
2022/08/19 05:43:39;;;;;;;2.22;0.60;;;22.00;80.40;;;;;;6126335;23;20006;-67
2022/08/19 05:46:06;;;;;;;4.55;0.90;;;22.00;80.00;;;;;;6125665;23;20012;-66
2022/08/19 05:48:33;;;;;;;5.28;0.93;;;21.90;79.70;;;;;;6126496;23;20390;-66
2022/08/19 05:51:05;;;;;;;2.75;0.75;;;22.00;79.80;;;;;;6126151;23;20013;-66
2022/08/19 05:53:31;;;;;;;;;;;22.00;79.50;;;;;;6126836;23;20065;-68
2022/08/19 05:55:57;;;;;;;4.95;0.80;;;22.00;79.20;;;;;;6126179;23;19980;-72
2022/08/19 05:58:23;;;;;;;2.33;0.70;;;22.00;79.10;;;;;;6125961;23;20064;-77
2022/08/19 06:00:49;;;;;;;1.48;0.52;;;22.00;79.00;;;;;;6126250;23;20344;-68
2022/08/19 06:03:15;;;;;;;4.63;0.70;;;22.00;78.20;;;;;;6126462;23;20018;-67
2022/08/19 06:05:41;;;;;;;7.93;1.20;;;22.00;77.90;;;;;;6126035;23;20377;-67
2022/08/19 06:08:07;;;;;;;7.38;1.40;;;22.10;78.70;;;;;;6126024;23;20016;-66
2022/08/19 06:10:33;;;;;;;5.70;1.20;;;22.00;79.70;;;;;;6126189;23;20484;-78
2022/08/19 06:12:58;;;;;;;5.05;1.88;;;22.10;80.50;;;;;;6125741;23;20002;-67
2022/08/19 06:15:25;;;;;;;6.30;1.35;;;22.10;81.10;;;;;;6125854;23;20010;-78
2022/08/19 06:17:51;;;;;;;4.55;1.27;;;22.10;81.20;;;;;;6126425;23;20017;-66
2022/08/19 06:20:17;;;;;;;4.35;1.40;;;22.10;81.80;;;;;;6125630;23;20006;-73
2022/08/19 06:22:46;;;;;;;5.07;1.17;;;22.10;82.10;;;;;;6126405;23;20021;-66
2022/08/19 06:25:13;;;;;;;5.72;1.40;;;22.10;82.50;;;;;;6127398;23;20001;-67
2022/08/19 06:27:40;;;;;;;4.22;1.63;;;22.10;82.80;;;;;;6128109;23;20077;-70
2022/08/19 06:30:06;;;;;;;4.57;1.23;;;22.20;83.60;;;;;;6127803;23;20018;-68
2022/08/19 06:32:32;;;;;;;6.72;1.75;;;22.20;83.90;;;;;;6127529;23;20307;-66
2022/08/19 06:34:57;;;;;;;4.50;1.45;;;22.20;83.80;;;;;;6127456;23;20016;-70
2022/08/19 06:37:23;;;;;;;5.32;1.50;;;22.20;83.80;;;;;;6128196;23;20329;-66
2022/08/19 06:39:50;;;;;;;5.25;1.30;;;22.20;83.40;;;;;;6127398;23;20333;-66
2022/08/19 06:42:18;;;;;;;4.97;1.10;;;22.30;83.00;;;;;;6127420;23;20333;-67
2022/08/19 06:44:46;;;;;;;3.35;0.98;;;22.30;82.80;;;;;;6127488;23;20021;-69
2022/08/19 06:47:14;;;;;;;5.25;1.30;;;22.40;82.90;;;;;;6127766;23;20373;-66
2022/08/19 06:49:40;;;;;;;5.63;1.17;;;22.40;82.50;;;;;;6127379;23;20017;-67
2022/08/19 06:52:06;;;;;;;3.40;1.00;;;22.40;82.20;;;;;;6127241;23;20013;-70
2022/08/19 06:54:31;;;;;;;5.72;1.00;;;22.40;81.80;;;;;;6127645;23;20049;-66
2022/08/19 06:57:01;;;;;;;1.85;0.80;;;22.40;81.50;;;;;;6127676;23;20394;-70
2022/08/19 06:59:32;;;;;;;3.45;1.00;;;22.40;81.60;;;;;;6127373;23;20475;-66
2022/08/19 07:02:00;;;;;;;5.50;1.15;;;22.40;82.00;;;;;;6126924;23;20499;-65
2022/08/19 07:04:31;;;;;;;7.25;1.00;;;22.50;82.40;;;;;;6127436;23;20031;-66
2022/08/19 07:07:09;;;;;;;4.85;1.05;;;22.50;82.40;;;;;;6127466;23;19998;-65
2022/08/19 07:09:37;;;;;;;3.60;0.98;;;22.50;82.80;;;;;;6127103;23;20012;-71
2022/08/19 07:12:06;;;;;;;7.40;1.02;;;22.50;82.90;;;;;;6127325;23;20085;-68
2022/08/19 07:14:36;;;;;;;5.47;1.48;;;22.50;83.40;;;;;;6127025;23;20465;-73
2022/08/19 07:17:03;;;;;;;5.35;1.02;;;22.50;83.70;;;;;;6126892;23;20016;-75
2022/08/19 07:19:29;;;;;;;8.45;1.50;;;22.50;83.50;;;;;;6126708;23;20006;-67
2022/08/19 07:21:55;;;;;;;13.73;2.25;;;22.50;83.70;;;;;;6126723;23;20002;-67
2022/08/19 07:24:23;;;;;;;62.28;3.85;;;22.60;83.90;;;;;;6127182;23;20085;-69
2022/08/19 07:26:51;;;;;;;16.70;1.35;;;22.60;83.70;;;;;;6127158;23;20018;-77
2022/08/19 07:29:18;;;;;;;6.63;1.42;;;22.60;83.90;;;;;;6126694;23;20056;-71
2022/08/19 07:31:44;;;;;;;8.45;1.45;;;22.60;83.80;;;;;;6126886;23;20017;-72
2022/08/19 07:34:14;;;;;;;9.52;1.27;;;22.60;84.00;;;;;;6126659;23;20014;-70
2022/08/19 07:36:41;;;;;;;28.77;2.42;;;22.70;83.50;;;;;;6127417;23;20333;-66
2022/08/19 07:39:15;;;;;;;9.50;1.08;;;22.70;82.90;;;;;;6127411;23;20038;-67
2022/08/19 07:41:41;;;;;;;4.30;1.20;;;22.70;82.10;;;;;;6126955;23;20433;-74
2022/08/19 07:44:08;;;;;;;4.57;0.80;;;22.80;82.10;;;;;;6126966;23;20014;-76
2022/08/19 07:46:37;;;;;;;5.57;1.23;;;22.80;82.10;;;;;;6127029;23;20337;-77
2022/08/19 07:49:03;;;;;;;6.60;1.08;;;22.90;81.10;;;;;;6127018;23;20017;-76
2022/08/19 07:51:29;;;;;;;4.03;1.05;;;23.00;80.30;;;;;;6127034;23;20370;-68
2022/08/19 07:53:55;;;;;;;6.40;1.38;;;23.10;80.20;;;;;;6126971;23;20050;-68
2022/08/19 07:56:21;;;;;;;7.63;0.88;;;23.10;80.10;;;;;;6126902;23;20006;-68
2022/08/19 07:58:50;;;;;;;3.47;1.17;;;23.20;79.70;;;;;;6127094;23;20010;-74
2022/08/19 08:01:22;;;;;;;5.50;1.10;;;23.20;79.40;;;;;;6126666;23;20002;-69
2022/08/19 08:09:22;;;;;;;4.80;1.00;;;23.40;80.20;;;;;;6126757;23;20017;-71
2022/08/19 08:11:52;;;;;;;4.30;1.20;;;23.40;79.90;;;;;;6127007;23;20432;-75
2022/08/19 08:14:28;;;;;;;5.80;1.17;;;23.50;79.50;;;;;;6126355;23;20020;-69
2022/08/19 08:16:55;;;;;;;8.82;1.60;;;23.60;78.90;;;;;;6126527;23;20002;-75
2022/08/19 08:19:23;;;;;;;4.90;0.95;;;23.60;78.90;;;;;;6126309;23;20029;-77
2022/08/19 08:21:49;;;;;;;4.13;1.30;;;23.60;79.00;;;;;;6126136;23;20017;-69
2022/08/19 08:24:17;;;;;;;4.97;1.02;;;23.60;78.30;;;;;;6126403;23;20073;-75
2022/08/19 08:26:43;;;;;;;9.60;1.40;;;23.60;77.80;;;;;;6126288;23;20101;-68
2022/08/19 08:29:12;;;;;;;3.72;0.90;;;23.60;78.10;;;;;;6126585;23;20013;-65
2022/08/19 08:31:42;;;;;;;5.13;1.13;;;23.60;78.80;;;;;;6126590;23;20064;-74
2022/08/19 08:34:09;;;;;;;2.65;0.93;;;23.60;79.00;;;;;;6126570;23;20028;-72
2022/08/19 08:36:41;;;;;;;9.55;1.10;;;23.70;79.00;;;;;;6126296;23;20449;-68
2022/08/19 08:39:08;;;;;;;5.15;1.00;;;23.60;79.00;;;;;;6126591;23;20385;-67
2022/08/19 08:41:37;;;;;;;8.82;1.50;;;23.70;79.50;;;;;;6126532;23;20085;-65
2022/08/19 08:44:07;;;;;;;7.63;1.58;;;23.70;80.20;;;;;;6126128;23;20029;-74
2022/08/19 08:46:41;;;;;;;5.05;2.00;;;23.70;80.90;;;;;;6125903;23;20072;-75
2022/08/19 08:49:25;;;;;;;6.22;1.58;;;23.60;81.30;;;;;;6126473;23;20057;-66
2022/08/19 08:52:13;;;;;;;8.85;1.52;;;23.60;81.40;;;;;;6126532;23;20002;-66
2022/08/19 08:54:48;;;;;;;9.10;1.63;;;23.60;81.70;;;;;;6125486;23;20084;-67
2022/08/19 08:57:31;;;;;;;6.07;1.50;;;23.60;81.60;;;;;;6126167;23;20010;-67
2022/08/19 09:00:00;;;;;;;24.15;2.22;;;23.60;82.20;;;;;;6125921;23;20414;-67
2022/08/19 09:02:26;;;;;;;9.80;1.90;;;23.60;83.20;;;;;;6126103;23;20010;-65
2022/08/19 09:04:53;;;;;;;16.13;2.00;;;23.60;84.10;;;;;;6126227;23;20012;-65
2022/08/19 09:07:40;;;;;;;9.45;1.77;;;23.50;85.60;;;;;;6126385;23;20001;-68
2022/08/19 09:10:28;;;;;;;7.03;1.55;;;23.50;86.60;;;;;;6126296;23;20002;-66
2022/08/19 09:12:56;;;;;;;9.98;1.65;;;23.50;88.00;;;;;;6126329;23;20319;-66
2022/08/19 09:15:54;;;;;;;6.93;1.70;;;23.50;88.00;;;;;;6126132;23;20096;-68
2022/08/19 09:18:20;;;;;;;10.00;2.00;;;23.50;88.40;;;;;;6104120;23;20006;-67
2022/08/19 09:20:49;;;;;;;9.80;1.75;;;23.50;88.90;;;;;;6126464;23;20085;-74
2022/08/19 09:23:15;;;;;;;11.05;1.85;;;23.50;88.70;;;;;;6126202;23;20429;-68
2022/08/19 09:25:41;;;;;;;9.02;2.30;;;23.50;88.40;;;;;;6125968;23;20081;-68
2022/08/19 09:28:07;;;;;;;6.40;1.90;;;23.50;88.10;;;;;;6125959;23;20425;-74
2022/08/19 09:30:39;;;;;;;8.77;2.20;;;23.50;88.30;;;;;;6126205;23;20014;-75
2022/08/19 09:33:06;;;;;;;10.82;2.75;;;23.50;88.10;;;;;;6126059;23;20021;-75
2022/08/19 09:35:32;;;;;;;10.73;3.00;;;23.40;88.00;;;;;;6126060;23;20010;-73
2022/08/19 09:37:59;;;;;;;12.70;2.33;;;23.40;87.70;;;;;;6126195;23;20006;-75
2022/08/19 09:40:26;;;;;;;9.02;2.22;;;23.40;87.60;;;;;;6126291;23;20093;-71
2022/08/19 09:42:52;;;;;;;9.30;2.15;;;23.30;87.50;;;;;;6126425;23;20016;-68
2022/08/19 09:45:21;;;;;;;12.18;2.13;;;23.20;87.60;;;;;;6125909;23;20006;-69
2022/08/19 09:47:48;;;;;;;13.13;3.40;;;23.20;87.80;;;;;;6126075;23;20480;-74
2022/08/19 09:50:14;;;;;;;9.38;2.08;;;23.20;88.10;;;;;;6126287;23;20033;-76
2022/08/19 09:52:41;;;;;;;18.20;3.22;;;23.20;88.60;;;;;;6125910;23;20363;-67
2022/08/19 09:55:10;;;;;;;9.07;2.58;;;23.20;88.60;;;;;;6125436;23;20349;-67
2022/08/19 09:57:35;;;;;;;12.15;2.10;;;23.20;88.50;;;;;;6126425;23;19998;-69
2022/08/19 10:00:04;;;;;;;11.55;2.15;;;23.30;88.20;;;;;;6128179;23;20037;-68
2022/08/19 10:02:30;;;;;;;13.77;3.13;;;23.30;88.00;;;;;;6127695;23;20113;-67
2022/08/19 10:07:40;;;;;;;14.20;3.08;;;23.40;87.70;;;;;;6127776;23;20392;-75
2022/08/19 10:10:07;;;;;;;20.13;2.92;;;23.40;87.30;;;;;;6127738;23;20014;-73
2022/08/19 10:12:33;;;;;;;14.32;2.92;;;23.40;87.10;;;;;;6127666;23;20033;-75
2022/08/19 10:15:00;;;;;;;18.38;3.17;;;23.40;87.20;;;;;;6127322;23;20010;-76
2022/08/19 10:17:26;;;;;;;17.15;2.85;;;23.50;87.40;;;;;;6127599;23;20006;-67
2022/08/19 10:19:52;;;;;;;15.68;3.42;;;23.60;87.40;;;;;;6127947;23;20362;-68
2022/08/19 10:22:18;;;;;;;13.60;3.08;;;23.70;87.10;;;;;;6127727;23;20002;-72
2022/08/19 10:24:45;;;;;;;11.02;2.45;;;23.80;86.90;;;;;;6128122;23;20333;-69
2022/08/19 10:27:13;;;;;;;12.02;2.60;;;23.80;86.70;;;;;;6127457;23;20458;-67
2022/08/19 10:29:39;;;;;;;11.90;2.83;;;23.80;86.60;;;;;;6127591;23;20017;-76
2022/08/19 10:32:08;;;;;;;11.65;2.90;;;23.80;87.30;;;;;;6127791;23;20025;-68
2022/08/19 10:34:36;;;;;;;13.48;2.78;;;23.80;87.20;;;;;;6127588;23;20064;-67
2022/08/19 10:37:05;;;;;;;13.55;2.70;;;23.80;87.50;;;;;;6127498;23;19998;-67
2022/08/19 10:39:33;;;;;;;14.75;2.60;;;23.80;87.60;;;;;;6127052;23;20057;-72
2022/08/19 10:41:58;;;;;;;11.48;2.60;;;23.80;87.90;;;;;;6127107;23;20009;-72
2022/08/19 10:44:25;;;;;;;12.75;2.72;;;23.80;88.20;;;;;;6127663;23;20002;-75
2022/08/19 10:46:51;;;;;;;15.90;3.08;;;23.80;88.30;;;;;;6127186;23;20010;-67
2022/08/19 10:49:19;;;;;;;16.58;2.90;;;23.80;88.30;;;;;;6127283;23;19998;-67
2022/08/19 10:57:15;;;;;;;15.15;2.70;;;23.80;88.50;;;;;;6127487;23;20021;-73
2022/08/19 10:59:41;;;;;;;12.57;2.80;;;23.80;88.60;;;;;;6127633;23;20024;-76
2022/08/19 11:02:09;;;;;;;13.98;2.70;;;23.80;88.80;;;;;;6127315;23;20481;-75
2022/08/19 11:04:37;;;;;;;13.77;3.15;;;23.80;88.70;;;;;;6127248;23;20098;-73
2022/08/19 11:07:04;;;;;;;15.43;2.75;;;23.80;88.20;;;;;;6127697;23;20033;-73
2022/08/19 11:09:30;;;;;;;14.40;2.97;;;23.80;88.10;;;;;;6126849;23;20016;-72
2022/08/19 11:11:56;;;;;;;15.27;3.08;;;23.80;88.20;;;;;;6127426;23;20061;-73
2022/08/19 11:14:23;;;;;;;15.23;3.08;;;23.80;88.50;;;;;;6123623;23;20018;-69
2022/08/19 11:16:50;;;;;;;17.33;2.58;;;23.80;88.00;;;;;;6123952;23;20032;-70
2022/08/19 11:19:18;;;;;;;15.57;3.85;;;23.80;87.70;;;;;;6126132;23;20330;-69
2022/08/19 11:21:47;;;;;;;20.77;3.47;;;23.80;87.90;;;;;;6127267;23;20315;-72
2022/08/19 11:24:15;;;;;;;14.43;3.33;;;23.80;88.30;;;;;;6126944;23;20073;-78
2022/08/19 11:26:42;;;;;;;26.83;4.82;;;23.80;89.30;;;;;;6126942;23;20022;-71
2022/08/19 11:29:13;;;;;;;34.00;6.93;;;23.80;90.10;;;;;;6127135;23;20076;-72
2022/08/19 11:31:43;;;;;;;26.52;4.13;;;23.70;88.60;;;;;;6127095;23;20013;-68
2022/08/19 11:34:11;;;;;;;16.33;2.92;;;23.60;87.20;;;;;;6126908;23;20036;-71
2022/08/19 11:36:40;;;;;;;23.63;3.72;;;23.50;86.50;;;;;;6127135;23;20010;-72
2022/08/19 11:39:08;;;;;;;22.85;3.95;;;23.40;86.90;;;;;;6124000;23;20010;-72
2022/08/19 11:41:34;;;;;;;22.95;3.45;;;23.30;87.80;;;;;;6123523;23;20033;-71
2022/08/19 11:44:00;;;;;;;15.93;3.50;;;23.40;88.80;;;;;;6124354;23;20010;-76
2022/08/19 11:46:29;;;;;;;18.92;4.28;;;23.60;90.20;;;;;;6126332;23;20084;-73
2022/08/19 11:48:59;;;;;;;20.02;4.35;;;23.90;90.40;;;;;;6126568;23;20009;-73
2022/08/19 11:51:26;;;;;;;17.88;4.07;;;24.20;90.70;;;;;;6126929;23;20010;-76
2022/08/19 11:53:56;;;;;;;28.70;6.35;;;24.50;90.80;;;;;;6126388;23;20065;-76
2022/08/19 11:56:23;;;;;;;22.90;5.40;;;24.70;90.60;;;;;;6126578;23;20002;-76
2022/08/19 11:58:49;;;;;;;22.33;4.55;;;25.00;90.20;;;;;;6127091;23;20006;-77
2022/08/19 12:01:18;;;;;;;20.88;4.47;;;25.20;89.50;;;;;;6126470;23;20064;-76
2022/08/19 12:03:49;;;;;;;27.80;4.68;;;25.40;88.30;;;;;;6126707;23;20063;-69
2022/08/19 12:06:18;;;;;;;22.10;4.03;;;25.60;86.60;;;;;;6126487;23;20500;-70
2022/08/19 12:08:44;;;;;;;23.35;4.78;;;25.60;85.50;;;;;;6125847;23;20097;-69
2022/08/19 12:11:15;;;;;;;17.38;4.13;;;25.80;85.60;;;;;;6126154;23;20076;-73
2022/08/19 12:13:44;;;;;;;19.85;4.07;;;25.90;86.50;;;;;;6126630;23;20010;-72
2022/08/19 12:16:12;;;;;;;27.60;4.93;;;26.10;85.90;;;;;;6100281;23;20009;-73
2022/08/19 12:18:45;;;;;;;22.63;3.90;;;26.30;84.60;;;;;;6125994;23;20425;-70
2022/08/19 12:21:13;;;;;;;21.42;4.75;;;26.50;82.70;;;;;;6125359;23;19998;-68
2022/08/19 12:23:40;;;;;;;20.70;4.70;;;26.70;84.00;;;;;;6126755;23;20018;-69
2022/08/19 12:26:06;;;;;;;19.30;4.00;;;26.90;83.10;;;;;;6126287;23;20029;-76
2022/08/19 12:28:32;;;;;;;22.73;5.43;;;27.10;82.00;;;;;;6126310;23;20021;-71
2022/08/19 12:30:58;;;;;;;24.65;4.93;;;27.20;81.20;;;;;;6126160;23;20002;-75
2022/08/19 12:33:27;;;;;;;19.60;4.88;;;27.40;80.80;;;;;;6126717;23;20005;-77
2022/08/19 12:35:52;;;;;;;19.23;4.25;;;27.50;79.60;;;;;;6126231;23;20042;-68
2022/08/19 12:38:18;;;;;;;22.13;4.60;;;27.60;78.70;;;;;;6126019;23;20005;-69
2022/08/19 12:40:49;;;;;;;20.40;3.72;;;27.70;78.50;;;;;;6125984;23;20041;-69
2022/08/19 12:43:19;;;;;;;22.52;4.28;;;27.70;77.00;;;;;;6126315;23;20006;-72
2022/08/19 12:45:45;;;;;;;26.23;4.25;;;27.70;76.40;;;;;;6125329;23;20608;-72
2022/08/19 12:48:11;;;;;;;27.13;4.47;;;27.70;75.60;;;;;;6121835;23;20106;-75
2022/08/19 12:50:40;;;;;;;20.73;4.28;;;27.70;74.50;;;;;;6096867;23;20016;-73
2022/08/19 12:53:06;;;;;;;20.52;4.47;;;27.60;74.00;;;;;;6126407;23;20093;-75
2022/08/19 12:55:31;;;;;;;18.27;3.92;;;27.50;73.60;;;;;;6126307;23;20404;-71
2022/08/19 12:57:57;;;;;;;25.60;4.18;;;27.40;73.00;;;;;;6125929;23;20008;-70
2022/08/19 13:00:23;;;;;;;25.75;4.93;;;27.40;72.70;;;;;;6126843;23;20010;-75
2022/08/19 13:02:51;;;;;;;14.27;3.78;;;27.40;72.60;;;;;;6126438;23;20020;-70
2022/08/19 13:05:22;;;;;;;23.27;4.97;;;27.40;72.20;;;;;;6126208;23;20483;-69
2022/08/19 13:07:48;;;;;;;20.48;3.42;;;27.40;71.40;;;;;;6126141;23;20425;-69